createdAt,value
2023-03-22T00:00:00.308Z,10.45
2023-03-22T00:02:27.408Z,9.81
2023-03-22T00:04:54.566Z,10.32
2023-03-22T00:07:21.703Z,10.39
2023-03-22T00:09:48.866Z,10.38
2023-03-22T00:12:15.873Z,10.22
2023-03-22T00:14:43.014Z,10.11
2023-03-22T00:17:09.970Z,10.28
2023-03-22T00:19:37.654Z,10.30
2023-03-22T00:22:06.428Z,10.18
2023-03-22T00:24:33.500Z,10.26
2023-03-22T00:27:01.148Z,10.09
2023-03-22T00:29:28.487Z,9.85
2023-03-22T00:31:56.424Z,10.14
2023-03-22T00:34:23.662Z,10.11
2023-03-22T00:36:52.202Z,10.27
2023-03-22T00:39:20.106Z,10.09
2023-03-22T00:41:47.910Z,10.27
2023-03-22T00:44:14.879Z,10.03
2023-03-22T00:46:41.874Z,9.96
2023-03-22T00:49:09.046Z,10.20
2023-03-22T00:51:36.154Z,10.07
2023-03-22T00:54:03.346Z,9.83
2023-03-22T00:56:30.531Z,10.14
2023-03-22T00:59:08.238Z,9.90
2023-03-22T01:01:35.477Z,10.20
2023-03-22T01:04:03.524Z,10.17
2023-03-22T01:06:35.996Z,10.14
2023-03-22T01:09:03.883Z,10.10
2023-03-22T01:11:30.956Z,10.01
2023-03-22T01:13:57.929Z,9.80
2023-03-22T01:16:24.962Z,9.90
2023-03-22T01:18:52.222Z,9.81
2023-03-22T01:21:19.335Z,9.82
2023-03-22T01:23:46.508Z,9.78
2023-03-22T01:26:13.508Z,9.67
2023-03-22T01:28:40.753Z,9.76
2023-03-22T01:31:07.797Z,9.82
2023-03-22T01:33:34.904Z,9.89
2023-03-22T01:36:01.899Z,9.68
2023-03-22T01:38:29.768Z,9.70
2023-03-22T01:40:59.152Z,9.47
2023-03-22T01:43:28.396Z,9.59
2023-03-22T01:45:57.289Z,9.66
2023-03-22T01:48:37.975Z,9.61
2023-03-22T01:51:19.090Z,9.63
2023-03-22T01:54:12.834Z,9.58
2023-03-22T01:56:41.802Z,9.34
2023-03-22T01:59:15.503Z,9.47
2023-03-22T02:02:03.062Z,9.58
2023-03-22T02:04:36.935Z,9.41
2023-03-22T02:07:15.500Z,9.37
2023-03-22T02:09:45.836Z,9.41
2023-03-22T02:12:28.367Z,9.55
2023-03-22T02:15:25.775Z,9.41
2023-03-22T02:18:11.519Z,9.45
2023-03-22T02:21:04.091Z,9.46
2023-03-22T02:23:37.183Z,9.42
2023-03-22T02:26:23.743Z,9.44
2023-03-22T02:29:01.816Z,9.44
2023-03-22T02:31:58.564Z,9.38
2023-03-22T02:35:07.483Z,9.12
2023-03-22T02:38:22.732Z,9.42
2023-03-22T02:41:08.254Z,9.33
2023-03-22T02:43:46.395Z,9.25
2023-03-22T02:46:25.233Z,9.25
2023-03-22T02:49:28.510Z,9.09
2023-03-22T02:52:32.502Z,9.27
2023-03-22T02:55:20.137Z,9.25
2023-03-22T02:58:00.622Z,9.22
2023-03-22T03:00:28.945Z,8.99
2023-03-22T03:03:11.483Z,9.12
2023-03-22T03:05:43.771Z,8.98
2023-03-22T03:08:14.470Z,8.95
2023-03-22T03:10:42.781Z,9.03
2023-03-22T03:13:16.432Z,9.08
2023-03-22T03:15:46.640Z,8.82
2023-03-22T03:18:40.880Z,8.93
2023-03-22T03:21:30.319Z,9.08
2023-03-22T03:24:14.669Z,9.03
2023-03-22T03:26:52.369Z,8.96
2023-03-22T03:29:30.326Z,8.87
2023-03-22T03:32:28.619Z,8.76
2023-03-22T03:35:07.463Z,8.74
2023-03-22T03:37:47.388Z,8.75
2023-03-22T03:40:29.097Z,8.68
2023-03-22T03:43:02.099Z,8.64
2023-03-22T03:45:31.033Z,8.47
2023-03-22T03:48:01.258Z,8.58
2023-03-22T03:50:28.525Z,8.35
2023-03-22T03:52:56.435Z,8.36
2023-03-22T03:55:25.277Z,8.14
2023-03-22T03:57:52.442Z,8.04
2023-03-22T04:00:20.131Z,8.18
2023-03-22T04:03:14.116Z,8.27
2023-03-22T04:06:01.366Z,8.07
2023-03-22T04:08:30.911Z,8.08
2023-03-22T04:10:58.025Z,7.93
2023-03-22T04:13:25.412Z,7.95
2023-03-22T04:15:57.666Z,7.85
2023-03-22T04:18:25.017Z,7.55
2023-03-22T04:20:53.706Z,7.47
2023-03-22T04:23:22.779Z,7.47
2023-03-22T04:25:50.931Z,7.67
2023-03-22T04:28:28.998Z,7.77
2023-03-22T04:30:57.867Z,7.84
2023-03-22T04:34:05.961Z,7.70
2023-03-22T04:36:51.631Z,7.62
2023-03-22T04:39:29.105Z,7.70
2023-03-22T04:42:35.645Z,7.62
2023-03-22T04:45:16.311Z,7.75
2023-03-22T04:47:47.785Z,7.84
2023-03-22T04:50:15.963Z,7.83
2023-03-22T04:52:50.173Z,7.77
2023-03-22T04:55:17.574Z,7.84
2023-03-22T04:57:45.625Z,7.82
2023-03-22T05:00:13.134Z,7.80
2023-03-22T05:02:41.501Z,7.85
2023-03-22T05:05:16.311Z,7.66
2023-03-22T05:07:44.152Z,7.68
2023-03-22T05:10:11.343Z,7.82
2023-03-22T05:12:39.663Z,7.73
2023-03-22T05:15:39.152Z,7.90
2023-03-22T05:18:08.288Z,7.89
2023-03-22T05:20:37.021Z,7.90
2023-03-22T05:23:21.220Z,8.03
2023-03-22T05:25:53.695Z,7.99
2023-03-22T05:28:22.306Z,7.94
2023-03-22T05:30:57.849Z,7.93
2023-03-22T05:33:52.288Z,8.12
2023-03-22T05:36:23.079Z,8.16
2023-03-22T05:39:09.220Z,8.13
2023-03-22T05:41:37.010Z,8.12
2023-03-22T05:44:05.402Z,8.05
2023-03-22T05:46:33.865Z,8.02
2023-03-22T05:49:27.392Z,8.29
2023-03-22T05:51:55.505Z,8.22
2023-03-22T05:54:25.010Z,8.33
2023-03-22T05:56:55.627Z,8.28
2023-03-22T05:59:23.433Z,8.26
2023-03-22T06:01:51.247Z,8.35
2023-03-22T06:04:25.158Z,8.34
2023-03-22T06:06:58.237Z,8.41
2023-03-22T06:09:43.441Z,8.08
2023-03-22T06:12:16.232Z,8.48
2023-03-22T06:14:47.573Z,8.32
2023-03-22T06:17:47.121Z,8.45
2023-03-22T06:20:19.664Z,8.32
2023-03-22T06:22:53.259Z,8.49
2023-03-22T06:25:20.384Z,8.56
2023-03-22T06:27:48.795Z,8.51
2023-03-22T06:30:16.083Z,8.58
2023-03-22T06:33:05.478Z,8.32
2023-03-22T06:35:36.015Z,8.28
2023-03-22T06:38:04.586Z,8.58
2023-03-22T06:40:32.262Z,8.56
2023-03-22T06:43:01.999Z,8.41
2023-03-22T06:45:33.674Z,8.46
2023-03-22T06:48:02.531Z,8.54
2023-03-22T06:50:59.879Z,8.60
2023-03-22T06:53:32.551Z,8.57
2023-03-22T06:55:59.887Z,8.53
2023-03-22T06:58:28.076Z,8.49
2023-03-22T07:00:58.461Z,8.58
2023-03-22T07:03:27.067Z,8.54
2023-03-22T07:06:08.489Z,8.30
2023-03-22T07:08:39.136Z,8.55
2023-03-22T07:11:08.020Z,8.49
2023-03-22T07:13:35.705Z,8.51
2023-03-22T07:16:09.881Z,8.34
2023-03-22T07:18:51.254Z,8.30
2023-03-22T07:21:18.340Z,8.27
2023-03-22T07:23:50.467Z,8.37
2023-03-22T07:26:19.783Z,8.55
2023-03-22T07:28:49.394Z,8.38
2023-03-22T07:31:18.790Z,8.27
2023-03-22T07:34:07.004Z,8.48
2023-03-22T07:36:57.123Z,8.45
2023-03-22T07:39:25.069Z,8.48
2023-03-22T07:41:52.796Z,8.19
2023-03-22T07:44:40.177Z,8.03
2023-03-22T07:47:20.310Z,8.44
2023-03-22T07:50:12.658Z,8.46
2023-03-22T07:52:41.440Z,8.30
2023-03-22T07:55:11.196Z,8.21
2023-03-22T07:57:39.179Z,8.39
2023-03-22T08:00:08.346Z,8.28
2023-03-22T08:02:54.195Z,8.37
2023-03-22T08:05:42.229Z,7.95
2023-03-22T08:08:13.707Z,8.31
2023-03-22T08:10:41.473Z,8.41
2023-03-22T08:13:08.664Z,8.23
2023-03-22T08:15:37.658Z,8.38
2023-03-22T08:18:05.038Z,8.44
2023-03-22T08:20:35.905Z,8.23
2023-03-22T08:23:11.521Z,8.33
2023-03-22T08:25:57.523Z,8.30
2023-03-22T08:28:24.809Z,8.31
2023-03-22T08:30:52.367Z,8.30
2023-03-22T08:33:23.819Z,8.30
2023-03-22T08:35:52.227Z,7.79
2023-03-22T08:38:20.029Z,7.86
2023-03-22T08:40:51.304Z,8.22
2023-03-22T08:43:22.276Z,7.83
2023-03-22T08:45:49.353Z,8.07
2023-03-22T08:48:19.897Z,7.98
2023-03-22T08:51:04.823Z,8.38
2023-03-22T08:53:52.590Z,8.23
2023-03-22T08:56:38.658Z,8.22
2023-03-22T08:59:22.985Z,8.03
2023-03-22T09:01:59.850Z,8.34
2023-03-22T09:04:27.417Z,8.11
2023-03-22T09:06:55.633Z,8.21
2023-03-22T09:09:22.769Z,8.30
2023-03-22T09:11:52.586Z,8.02
2023-03-22T09:14:19.706Z,8.13
2023-03-22T09:16:48.425Z,8.07
2023-03-22T09:19:15.803Z,8.24
2023-03-22T09:21:43.041Z,8.30
2023-03-22T09:24:17.848Z,8.18
2023-03-22T09:26:50.729Z,8.09
2023-03-22T09:29:19.716Z,7.91
2023-03-22T09:31:49.127Z,8.05
2023-03-22T09:34:20.059Z,8.19
2023-03-22T09:36:47.641Z,8.27
2023-03-22T09:39:20.800Z,7.86
2023-03-22T09:42:06.329Z,8.32
2023-03-22T09:44:45.417Z,8.33
2023-03-22T09:47:44.635Z,8.08
2023-03-22T09:50:31.742Z,8.37
2023-03-22T09:53:00.191Z,8.32
2023-03-22T09:55:42.626Z,8.10
2023-03-22T09:58:26.215Z,8.40
2023-03-22T10:00:58.190Z,8.46
2023-03-22T10:03:43.712Z,8.44
2023-03-22T10:06:30.802Z,8.29
2023-03-22T10:09:14.658Z,8.48
2023-03-22T10:12:07.203Z,8.40
2023-03-22T10:14:46.917Z,7.99
2023-03-22T10:17:17.696Z,8.18
2023-03-22T10:20:24.107Z,7.91
2023-03-22T10:22:54.273Z,8.22
2023-03-22T10:25:27.437Z,7.84
2023-03-22T10:27:54.825Z,8.25
2023-03-22T10:30:24.951Z,8.35
2023-03-22T10:33:02.817Z,8.19
2023-03-22T10:35:31.307Z,8.45
2023-03-22T10:38:02.391Z,8.42
2023-03-22T10:40:33.583Z,8.56
2023-03-22T10:43:08.541Z,8.61
2023-03-22T10:45:37.047Z,8.62
2023-03-22T10:48:33.712Z,8.70
2023-03-22T10:51:01.602Z,8.65
2023-03-22T10:53:42.680Z,8.85
2023-03-22T10:56:27.877Z,8.63
2023-03-22T10:58:55.463Z,8.79
2023-03-22T11:01:27.179Z,8.65
2023-03-22T11:04:07.219Z,8.72
2023-03-22T11:06:38.582Z,8.85
2023-03-22T11:09:15.887Z,8.71
2023-03-22T11:11:51.716Z,8.68
2023-03-22T11:14:37.198Z,8.74
2023-03-22T11:17:08.235Z,8.74
2023-03-22T11:19:53.849Z,8.72
2023-03-22T11:22:26.216Z,8.77
2023-03-22T11:24:56.749Z,8.75
2023-03-22T11:27:27.086Z,8.69
2023-03-22T11:29:58.603Z,8.91
2023-03-22T11:32:36.892Z,8.92
2023-03-22T11:35:17.787Z,8.96
2023-03-22T11:37:49.749Z,8.83
2023-03-22T11:40:26.819Z,9.04
2023-03-22T11:43:03.177Z,8.84
2023-03-22T11:45:33.201Z,8.99
2023-03-22T11:48:07.293Z,8.90
2023-03-22T11:50:38.185Z,8.91
2023-03-22T11:53:12.276Z,8.84
2023-03-22T11:55:39.643Z,8.63
2023-03-22T11:58:07.065Z,8.66
2023-03-22T12:00:38.048Z,8.83
2023-03-22T12:03:06.532Z,8.76
2023-03-22T12:05:43.072Z,8.91
2023-03-22T12:08:22.112Z,8.94
2023-03-22T12:10:54.438Z,8.90
2023-03-22T12:13:27.244Z,8.90
2023-03-22T12:16:01.032Z,8.92
2023-03-22T12:18:43.396Z,8.88
2023-03-22T12:21:13.777Z,8.93
2023-03-22T12:23:40.875Z,8.60
2023-03-22T12:26:20.524Z,8.91
2023-03-22T12:29:01.956Z,8.95
2023-03-22T12:31:33.272Z,8.74
2023-03-22T12:34:05.592Z,8.92
2023-03-22T12:36:43.168Z,8.66
2023-03-22T12:39:23.352Z,8.52
2023-03-22T12:41:54.350Z,8.70
2023-03-22T12:44:27.349Z,8.86
2023-03-22T12:47:01.468Z,8.91
2023-03-22T12:49:34.914Z,8.89
2023-03-22T12:52:34.888Z,8.98
2023-03-22T12:55:22.107Z,8.85
2023-03-22T12:57:52.685Z,8.89
2023-03-22T13:00:22.027Z,8.81
2023-03-22T13:03:10.515Z,8.96
2023-03-22T13:05:38.221Z,9.00
2023-03-22T13:08:05.921Z,8.99
2023-03-22T13:10:33.116Z,9.06
2023-03-22T13:13:24.292Z,9.07
2023-03-22T13:16:00.029Z,9.10
2023-03-22T13:18:36.488Z,9.10
2023-03-22T13:21:14.542Z,8.76
2023-03-22T13:24:06.203Z,8.98
2023-03-22T13:26:47.692Z,8.96
2023-03-22T13:29:24.731Z,8.72
2023-03-22T13:31:51.829Z,8.93
2023-03-22T13:34:21.572Z,8.71
2023-03-22T13:36:55.186Z,8.95
2023-03-22T13:39:25.576Z,8.85
2023-03-22T13:42:23.259Z,8.93
2023-03-22T13:45:02.625Z,8.76
2023-03-22T13:47:32.177Z,8.79
2023-03-22T13:50:11.390Z,8.76
2023-03-22T13:52:46.347Z,8.59
2023-03-22T13:55:54.284Z,8.73
2023-03-22T13:58:31.143Z,8.67
2023-03-22T14:00:58.765Z,8.62
2023-03-22T14:03:36.735Z,8.62
2023-03-22T14:06:26.142Z,8.72
2023-03-22T14:08:58.782Z,8.68
2023-03-22T14:11:52.263Z,8.70
2023-03-22T14:14:28.845Z,8.64
2023-03-22T14:17:22.253Z,8.55
2023-03-22T14:19:50.719Z,8.63
